createdAt,value
2022-10-23T00:01:14.176Z,10.63
2022-10-23T00:03:40.715Z,10.62
2022-10-23T00:06:07.485Z,10.60
2022-10-23T00:08:34.396Z,10.59
2022-10-23T00:11:00.808Z,10.56
2022-10-23T00:13:27.198Z,10.52
2022-10-23T00:15:53.529Z,10.47
2022-10-23T00:18:20.133Z,10.46
2022-10-23T00:20:46.490Z,10.41
2022-10-23T00:23:12.877Z,10.35
2022-10-23T00:25:39.204Z,10.33
2022-10-23T00:28:05.976Z,10.32
2022-10-23T00:30:32.353Z,10.30
2022-10-23T00:32:58.688Z,10.29
2022-10-23T00:35:25.171Z,10.26
2022-10-23T00:37:51.618Z,10.24
2022-10-23T00:40:18.119Z,10.22
2022-10-23T00:42:44.683Z,10.22
2022-10-23T00:45:27.124Z,10.18
2022-10-23T00:47:55.139Z,10.18
2022-10-23T00:50:23.930Z,10.16
2022-10-23T00:52:54.361Z,10.16
2022-10-23T00:55:22.593Z,10.16
2022-10-23T00:57:50.805Z,10.17
2022-10-23T01:00:26.898Z,10.15
2022-10-23T01:02:54.905Z,10.12
2022-10-23T01:05:27.158Z,10.12
2022-10-23T01:08:21.455Z,10.04
2022-10-23T01:10:54.481Z,10.00
2022-10-23T01:13:37.706Z,9.97
2022-10-23T01:16:21.973Z,9.96
2022-10-23T01:18:58.680Z,9.96
2022-10-23T01:21:43.651Z,9.97
2022-10-23T01:24:27.279Z,10.01
2022-10-23T01:27:29.788Z,9.98
2022-10-23T01:30:02.291Z,9.94
2022-10-23T01:32:50.978Z,9.97
2022-10-23T01:35:25.253Z,9.99
2022-10-23T01:37:59.709Z,9.98
2022-10-23T01:40:41.196Z,9.98
2022-10-23T01:43:19.315Z,9.99
2022-10-23T01:45:53.247Z,9.98
2022-10-23T01:48:24.915Z,9.95
2022-10-23T01:50:54.989Z,9.93
2022-10-23T01:53:22.522Z,9.91
2022-10-23T01:55:50.957Z,9.91
2022-10-23T01:58:21.002Z,9.89
2022-10-23T02:00:50.055Z,9.87
2022-10-23T02:03:17.641Z,9.88
2022-10-23T02:05:45.132Z,9.87
2022-10-23T02:08:11.816Z,9.87
2022-10-23T02:10:56.442Z,9.84
2022-10-23T02:13:33.568Z,9.81
2022-10-23T02:16:15.934Z,9.78
2022-10-23T02:19:03.398Z,9.78
2022-10-23T02:22:05.102Z,9.73
2022-10-23T02:24:36.337Z,9.71
2022-10-23T02:27:07.833Z,9.71
2022-10-23T02:29:45.927Z,9.64
2022-10-23T02:32:14.496Z,9.66
2022-10-23T02:34:41.104Z,9.67
2022-10-23T02:37:07.629Z,9.66
2022-10-23T02:39:34.324Z,9.61
2022-10-23T02:42:08.698Z,9.56
2022-10-23T02:44:56.757Z,9.52
2022-10-23T02:47:35.177Z,9.46
2022-10-23T02:50:09.848Z,9.46
2022-10-23T02:52:46.624Z,9.43
2022-10-23T02:55:37.449Z,9.42
2022-10-23T02:58:20.472Z,9.41
2022-10-23T03:00:52.927Z,9.37
2022-10-23T03:03:29.271Z,9.36
2022-10-23T03:05:56.117Z,9.38
2022-10-23T03:08:22.599Z,9.37
2022-10-23T03:13:15.313Z,9.38
2022-10-23T03:15:41.673Z,9.42
2022-10-23T03:18:08.106Z,9.43
2022-10-23T03:20:34.473Z,9.42
2022-10-23T03:23:00.880Z,9.42
2022-10-23T03:25:27.371Z,9.41
2022-10-23T03:27:53.862Z,9.41
2022-10-23T03:30:20.347Z,9.43
2022-10-23T03:32:46.702Z,9.40
2022-10-23T03:35:13.062Z,9.41
2022-10-23T03:37:39.660Z,9.39
2022-10-23T03:40:06.849Z,9.39
2022-10-23T03:42:33.201Z,9.42
2022-10-23T03:44:59.513Z,9.43
2022-10-23T03:47:26.001Z,9.44
2022-10-23T03:49:52.626Z,9.45
2022-10-23T03:52:19.094Z,9.45
2022-10-23T03:54:45.540Z,9.43
2022-10-23T03:57:12.245Z,9.43
2022-10-23T03:59:38.701Z,9.44
2022-10-23T04:02:05.138Z,9.45
2022-10-23T04:04:31.589Z,9.45
2022-10-23T04:06:58.035Z,9.44
2022-10-23T04:09:24.666Z,9.46
2022-10-23T04:11:51.002Z,9.48
2022-10-23T04:14:17.361Z,9.48
2022-10-23T04:16:43.708Z,9.49
2022-10-23T04:19:10.215Z,9.50
2022-10-23T04:21:36.627Z,9.53
2022-10-23T04:24:03.609Z,9.52
2022-10-23T04:26:30.006Z,9.51
2022-10-23T04:28:56.538Z,9.55
2022-10-23T04:31:22.931Z,9.57
2022-10-23T04:33:49.348Z,9.59
2022-10-23T04:36:15.697Z,9.58
2022-10-23T04:38:42.255Z,9.61
2022-10-23T04:41:08.664Z,9.59
2022-10-23T04:43:35.105Z,9.56
2022-10-23T04:46:01.477Z,9.57
2022-10-23T04:48:29.191Z,9.59
2022-10-23T04:51:05.108Z,9.62
2022-10-23T04:53:31.526Z,9.67
2022-10-23T04:55:59.385Z,9.71
2022-10-23T04:58:27.202Z,9.73
2022-10-23T05:00:53.887Z,9.74
2022-10-23T05:03:22.057Z,9.76
2022-10-23T05:05:48.402Z,9.77
2022-10-23T05:08:17.897Z,9.79
2022-10-23T05:10:44.819Z,9.82
2022-10-23T05:13:11.185Z,9.83
2022-10-23T05:15:37.563Z,9.85
2022-10-23T05:18:16.911Z,9.85
2022-10-23T05:20:45.580Z,9.83
2022-10-23T05:23:14.208Z,9.86
2022-10-23T05:25:40.726Z,9.89
2022-10-23T05:28:07.614Z,9.91
2022-10-23T05:30:34.212Z,9.94
2022-10-23T05:33:03.722Z,9.99
2022-10-23T05:35:30.917Z,10.06
2022-10-23T05:37:59.932Z,10.10
2022-10-23T05:40:26.708Z,10.14
2022-10-23T05:42:53.190Z,10.17
2022-10-23T05:45:19.773Z,10.17
2022-10-23T05:47:46.635Z,10.22
2022-10-23T05:50:13.197Z,10.27
2022-10-23T05:52:39.660Z,10.31
2022-10-23T05:55:06.639Z,10.33
2022-10-23T05:57:33.759Z,10.37
2022-10-23T06:00:00.473Z,10.40
2022-10-23T06:02:26.893Z,10.42
2022-10-23T06:04:53.294Z,10.43
2022-10-23T06:07:26.548Z,10.44
2022-10-23T06:09:53.019Z,10.44
2022-10-23T06:12:21.020Z,10.42
2022-10-23T06:14:47.948Z,10.41
2022-10-23T06:17:14.676Z,10.43
2022-10-23T06:19:41.416Z,10.44
2022-10-23T06:22:07.812Z,10.43
2022-10-23T06:24:34.242Z,10.42
2022-10-23T06:27:00.556Z,10.43
2022-10-23T06:29:27.135Z,10.46
2022-10-23T06:31:53.498Z,10.47
2022-10-23T06:34:19.849Z,10.50
2022-10-23T06:36:46.243Z,10.53
2022-10-23T06:39:13.033Z,10.53
2022-10-23T06:41:41.908Z,10.55
2022-10-23T06:44:10.157Z,10.56
2022-10-23T06:46:36.924Z,10.57
2022-10-23T06:49:03.729Z,10.56
2022-10-23T06:51:30.074Z,10.57
2022-10-23T06:53:56.910Z,10.61
2022-10-23T06:56:25.274Z,10.64
2022-10-23T06:58:52.383Z,10.65
2022-10-23T07:01:19.690Z,10.68
2022-10-23T07:03:48.117Z,10.71
2022-10-23T07:06:14.872Z,10.75
2022-10-23T07:08:41.655Z,10.80
2022-10-23T07:11:10.417Z,10.83
2022-10-23T07:13:38.483Z,10.86
2022-10-23T07:16:12.769Z,10.86
2022-10-23T07:18:39.675Z,10.88
2022-10-23T07:21:06.071Z,10.93
2022-10-23T07:23:32.550Z,10.99
2022-10-23T07:26:10.933Z,11.07
2022-10-23T07:28:37.721Z,11.09
2022-10-23T07:31:04.315Z,11.13
2022-10-23T07:33:30.696Z,11.21
2022-10-23T07:35:57.091Z,11.28
2022-10-23T07:38:23.768Z,11.33
2022-10-23T07:40:50.284Z,11.41
2022-10-23T07:43:18.404Z,11.48
2022-10-23T07:45:47.621Z,11.56
2022-10-23T07:48:14.398Z,11.60
2022-10-23T07:50:40.755Z,11.66
2022-10-23T07:53:07.130Z,11.74
2022-10-23T07:55:33.525Z,11.81
2022-10-23T07:57:59.872Z,11.89
2022-10-23T08:00:26.330Z,11.98
2022-10-23T08:02:52.716Z,12.08
2022-10-23T08:05:20.189Z,12.16
2022-10-23T08:07:46.676Z,12.28
2022-10-23T08:10:13.033Z,12.39
2022-10-23T08:12:39.375Z,12.48
2022-10-23T08:15:06.185Z,12.59
2022-10-23T08:17:32.582Z,12.68
2022-10-23T08:19:58.993Z,12.77
2022-10-23T08:22:25.344Z,12.85
2022-10-23T08:24:51.684Z,12.94
2022-10-23T08:27:18.021Z,13.01
2022-10-23T08:29:44.592Z,13.08
2022-10-23T08:32:10.941Z,13.12
2022-10-23T08:34:37.871Z,13.20
2022-10-23T08:37:04.220Z,13.28
2022-10-23T08:39:30.666Z,13.33
2022-10-23T08:41:57.271Z,13.40
2022-10-23T08:44:40.586Z,13.46
2022-10-23T08:47:28.662Z,13.55
2022-10-23T08:50:34.727Z,13.60
2022-10-23T08:53:12.589Z,13.67
2022-10-23T08:55:44.810Z,13.73
2022-10-23T08:58:34.724Z,13.79
2022-10-23T09:01:02.953Z,13.86
2022-10-23T09:03:29.333Z,13.96
2022-10-23T09:06:09.439Z,14.04
2022-10-23T09:08:52.212Z,14.15
2022-10-23T09:11:48.063Z,14.24
2022-10-23T09:14:36.141Z,14.31
2022-10-23T09:17:19.341Z,14.38
2022-10-23T09:19:46.318Z,14.44
2022-10-23T09:22:13.573Z,14.47
2022-10-23T09:24:43.236Z,14.49
2022-10-23T09:27:15.125Z,14.51
2022-10-23T09:29:48.731Z,14.50
2022-10-23T09:32:15.190Z,14.52
2022-10-23T09:34:55.109Z,14.52
2022-10-23T09:37:25.333Z,14.51
2022-10-23T09:40:12.665Z,14.49
2022-10-23T09:42:54.715Z,14.50
2022-10-23T09:45:30.629Z,14.52
2022-10-23T09:48:05.447Z,14.50
2022-10-23T09:50:31.890Z,14.50
2022-10-23T09:52:58.529Z,14.50
2022-10-23T09:55:25.972Z,14.52
2022-10-23T09:57:53.716Z,14.54
2022-10-23T10:00:23.483Z,14.59
2022-10-23T10:02:59.251Z,14.64
2022-10-23T10:05:30.239Z,14.68
2022-10-23T10:08:38.536Z,14.73
2022-10-23T10:11:30.278Z,14.77
2022-10-23T10:14:07.498Z,14.83
2022-10-23T10:16:48.715Z,14.89
2022-10-23T10:19:33.830Z,14.95
2022-10-23T10:22:26.162Z,14.98
2022-10-23T10:25:02.938Z,15.01
2022-10-23T10:27:41.412Z,15.02
2022-10-23T10:30:15.885Z,15.04
2022-10-23T10:32:59.122Z,15.09
2022-10-23T10:35:39.071Z,15.13
2022-10-23T10:38:36.188Z,15.16
2022-10-23T10:41:28.900Z,15.16
2022-10-23T10:44:09.239Z,15.23
2022-10-23T10:47:18.549Z,15.26
2022-10-23T10:49:59.632Z,15.30
2022-10-23T10:52:37.740Z,15.36
2022-10-23T10:55:10.181Z,15.41
2022-10-23T10:57:45.959Z,15.45
2022-10-23T11:00:17.439Z,15.47
2022-10-23T11:02:51.505Z,15.51
2022-10-23T11:05:26.567Z,15.55
2022-10-23T11:07:58.203Z,15.60
2022-10-23T11:10:24.657Z,15.67
2022-10-23T11:12:51.730Z,15.72
2022-10-23T11:15:25.951Z,15.80
2022-10-23T11:17:58.506Z,15.86
2022-10-23T11:21:00.634Z,15.84
2022-10-23T11:23:48.242Z,15.83
2022-10-23T11:26:19.726Z,15.88
2022-10-23T11:29:09.210Z,15.95
2022-10-23T11:32:01.820Z,16.04
2022-10-23T11:34:46.516Z,16.15
2022-10-23T11:37:18.198Z,16.28
2022-10-23T11:40:01.303Z,16.41
2022-10-23T11:42:41.290Z,16.55
2022-10-23T11:45:26.934Z,16.70
2022-10-23T11:48:21.013Z,16.84
2022-10-23T11:50:47.329Z,16.95
2022-10-23T11:53:43.157Z,17.07
2022-10-23T11:56:12.343Z,17.18
2022-10-23T11:58:56.771Z,17.27
2022-10-23T12:01:39.683Z,17.36
2022-10-23T12:04:14.829Z,17.40
2022-10-23T12:06:47.926Z,17.49
2022-10-23T12:09:31.637Z,17.52
2022-10-23T12:12:15.628Z,17.54
2022-10-23T12:14:46.691Z,17.59
2022-10-23T12:17:22.341Z,17.57
2022-10-23T12:20:03.271Z,17.53
2022-10-23T12:22:39.559Z,17.53
2022-10-23T12:25:14.690Z,17.55
2022-10-23T12:28:03.467Z,17.58
2022-10-23T12:33:40.947Z,17.72
2022-10-23T12:36:50.566Z,17.73
2022-10-23T12:39:32.102Z,17.70
2022-10-23T12:42:00.486Z,17.66
2022-10-23T12:44:27.766Z,17.60
2022-10-23T12:46:57.582Z,17.69
2022-10-23T12:49:27.289Z,17.75
2022-10-23T12:52:02.471Z,17.80
2022-10-23T12:54:31.934Z,17.85
2022-10-23T12:56:58.334Z,17.85
2022-10-23T12:59:37.802Z,17.81
2022-10-23T13:02:24.823Z,17.84
2022-10-23T13:04:54.182Z,17.87
2022-10-23T13:07:25.216Z,17.90
2022-10-23T13:09:52.603Z,17.95
2022-10-23T13:12:27.996Z,17.97
2022-10-23T13:15:18.427Z,17.97
2022-10-23T13:18:09.257Z,17.95
2022-10-23T13:20:38.491Z,17.97
2022-10-23T13:23:07.805Z,18.00
2022-10-23T13:25:36.727Z,17.95
2022-10-23T13:28:23.737Z,17.97
2022-10-23T13:31:07.242Z,18.04
2022-10-23T13:33:41.956Z,18.07
2022-10-23T13:36:13.386Z,18.10
2022-10-23T13:38:42.669Z,18.17
2022-10-23T13:41:20.370Z,18.31
2022-10-23T13:43:48.009Z,18.39
2022-10-23T13:46:19.211Z,18.41
2022-10-23T13:48:46.596Z,18.45
2022-10-23T13:51:22.157Z,18.45
2022-10-23T13:53:49.144Z,18.51
2022-10-23T13:56:18.939Z,18.47
2022-10-23T13:58:45.590Z,18.45
2022-10-23T14:01:33.441Z,18.40
2022-10-23T14:04:00.063Z,18.36
2022-10-23T14:06:26.502Z,18.31
2022-10-23T14:08:52.906Z,18.31
2022-10-23T14:11:20.356Z,18.29
2022-10-23T14:13:47.591Z,18.24
2022-10-23T14:16:15.856Z,18.21
2022-10-23T14:18:43.199Z,18.20
2022-10-23T14:21:12.469Z,18.22
2022-10-23T14:23:38.812Z,18.27
2022-10-23T14:26:10.965Z,18.28
2022-10-23T14:28:37.615Z,18.33
2022-10-23T14:31:15.356Z,18.43
2022-10-23T14:33:42.494Z,18.53
2022-10-23T14:36:09.404Z,18.59
2022-10-23T14:38:36.397Z,18.59
2022-10-23T14:41:02.940Z,18.51
2022-10-23T14:43:29.351Z,18.44
2022-10-23T14:45:55.727Z,18.34
2022-10-23T14:48:22.064Z,18.25
2022-10-23T14:50:49.857Z,18.21
2022-10-23T14:53:16.706Z,18.18
2022-10-23T14:55:43.064Z,18.14
2022-10-23T14:58:09.490Z,18.10
2022-10-23T15:00:35.833Z,18.07
2022-10-23T15:03:02.233Z,18.06
2022-10-23T15:05:28.683Z,18.03
2022-10-23T15:07:55.709Z,18.01
2022-10-23T15:10:22.020Z,17.94
2022-10-23T15:12:49.028Z,17.89
2022-10-23T15:15:15.459Z,17.84
2022-10-23T15:17:42.288Z,17.77
2022-10-23T15:20:09.210Z,17.70
2022-10-23T15:22:35.619Z,17.64
2022-10-23T15:25:01.982Z,17.58
2022-10-23T15:27:28.452Z,17.53
2022-10-23T15:29:54.765Z,17.48
2022-10-23T15:32:21.225Z,17.40
2022-10-23T15:34:49.575Z,17.35
2022-10-23T15:37:16.115Z,17.31
2022-10-23T15:39:42.660Z,17.24
2022-10-23T15:42:10.255Z,17.20
2022-10-23T15:44:36.682Z,17.15
2022-10-23T15:47:03.297Z,17.13
2022-10-23T15:49:30.890Z,17.10
2022-10-23T15:51:57.461Z,17.07
2022-10-23T15:54:25.932Z,17.05
2022-10-23T15:56:54.014Z,17.03
2022-10-23T15:59:22.906Z,17.02
2022-10-23T16:01:49.732Z,16.99
2022-10-23T16:04:16.816Z,16.97
2022-10-23T16:06:46.198Z,16.95
2022-10-23T16:09:12.822Z,16.92
2022-10-23T16:11:41.335Z,16.88
2022-10-23T16:14:11.413Z,16.83
2022-10-23T16:16:37.742Z,16.82
2022-10-23T16:19:04.838Z,16.80
2022-10-23T16:21:35.622Z,16.80
2022-10-23T16:24:04.778Z,16.78
2022-10-23T16:26:31.823Z,16.78
2022-10-23T16:29:01.334Z,16.79
2022-10-23T16:31:28.186Z,16.79
2022-10-23T16:36:29.154Z,16.76
2022-10-23T16:38:55.742Z,16.74
2022-10-23T16:41:22.178Z,16.72
2022-10-23T16:43:48.554Z,16.72
2022-10-23T16:46:20.474Z,16.70
2022-10-23T16:48:47.957Z,16.68
2022-10-23T16:51:20.166Z,16.64
2022-10-23T16:53:46.994Z,16.60
2022-10-23T16:56:16.487Z,16.58
2022-10-23T16:58:43.555Z,16.58
2022-10-23T17:01:14.011Z,16.53
2022-10-23T17:03:43.144Z,16.52
2022-10-23T17:06:11.936Z,16.51
2022-10-23T17:08:39.131Z,16.47
2022-10-23T17:11:14.761Z,16.45
2022-10-23T17:13:43.785Z,16.47
2022-10-23T17:16:30.457Z,16.45
2022-10-23T17:18:57.485Z,16.43
2022-10-23T17:21:24.429Z,16.41
2022-10-23T17:23:50.854Z,16.38
2022-10-23T17:26:19.754Z,16.36
2022-10-23T17:28:46.388Z,16.35
2022-10-23T17:31:22.244Z,16.34
2022-10-23T17:33:51.655Z,16.33
2022-10-23T17:36:19.805Z,16.30
2022-10-23T17:38:46.471Z,16.30
2022-10-23T17:41:14.681Z,16.31
2022-10-23T17:43:42.416Z,16.29
2022-10-23T17:46:10.579Z,16.29
2022-10-23T17:48:37.658Z,16.29
2022-10-23T17:51:09.943Z,16.32
2022-10-23T17:53:38.279Z,16.32
2022-10-23T17:56:06.709Z,16.34
2022-10-23T17:58:33.582Z,16.32
2022-10-23T18:01:07.357Z,16.35
2022-10-23T18:03:34.610Z,16.35
2022-10-23T18:06:07.960Z,16.37
2022-10-23T18:08:36.114Z,16.37
2022-10-23T18:11:04.371Z,16.37
2022-10-23T18:13:32.689Z,16.37
2022-10-23T18:16:07.560Z,16.38
2022-10-23T18:18:34.649Z,16.42
2022-10-23T18:21:01.890Z,16.45
2022-10-23T18:23:29.477Z,16.53
2022-10-23T18:25:57.957Z,16.57
2022-10-23T18:28:25.092Z,16.58
2022-10-23T18:30:53.417Z,16.58
2022-10-23T18:33:23.007Z,16.64
2022-10-23T18:35:49.742Z,16.67
2022-10-23T18:38:16.303Z,16.70
2022-10-23T18:40:43.858Z,16.73
2022-10-23T18:43:14.891Z,16.75
2022-10-23T18:45:42.211Z,16.76
2022-10-23T18:48:08.666Z,16.81
2022-10-23T18:50:36.917Z,16.83
2022-10-23T18:53:03.720Z,16.83
2022-10-23T18:55:30.143Z,16.85
2022-10-23T18:57:56.866Z,16.88
2022-10-23T19:00:23.269Z,16.87
2022-10-23T19:02:52.314Z,16.87
2022-10-23T19:05:19.308Z,16.87
2022-10-23T19:07:46.190Z,16.87
2022-10-23T19:10:17.746Z,16.83
2022-10-23T19:12:44.313Z,16.81
2022-10-23T19:15:10.880Z,16.82
2022-10-23T19:17:37.581Z,16.79
2022-10-23T19:20:11.375Z,16.76
2022-10-23T19:22:40.884Z,16.74
2022-10-23T19:25:16.619Z,16.68
2022-10-23T19:27:44.892Z,16.68
2022-10-23T19:30:13.669Z,16.66
2022-10-23T19:32:41.566Z,16.63
2022-10-23T19:35:09.510Z,16.59
2022-10-23T19:37:38.678Z,16.54
2022-10-23T19:40:07.069Z,16.53
2022-10-23T19:42:35.038Z,16.48
2022-10-23T19:45:01.491Z,16.42
2022-10-23T19:47:27.836Z,16.37
2022-10-23T19:49:55.229Z,16.33
2022-10-23T19:52:22.660Z,16.29
2022-10-23T19:54:49.932Z,16.25
2022-10-23T19:57:19.223Z,16.19
2022-10-23T19:59:52.305Z,16.11
2022-10-23T20:02:20.183Z,16.04
2022-10-23T20:04:46.894Z,15.98
2022-10-23T20:07:13.853Z,15.95
2022-10-23T20:09:40.558Z,15.93
2022-10-23T20:12:06.961Z,15.86
2022-10-23T20:14:33.826Z,15.81
2022-10-23T20:17:01.555Z,15.75
2022-10-23T20:19:29.061Z,15.71
2022-10-23T20:21:55.410Z,15.69
2022-10-23T20:24:21.921Z,15.65
2022-10-23T20:26:52.218Z,15.64
2022-10-23T20:29:18.715Z,15.62
2022-10-23T20:31:45.185Z,15.58
2022-10-23T20:34:11.886Z,15.58
2022-10-23T20:36:46.538Z,15.54
2022-10-23T20:39:20.233Z,15.44
2022-10-23T20:41:47.152Z,15.41
2022-10-23T20:46:47.428Z,15.32
2022-10-23T20:49:14.609Z,15.25
2022-10-23T20:51:41.002Z,15.15
2022-10-23T20:54:07.506Z,15.07
2022-10-23T20:56:36.841Z,15.04
2022-10-23T20:59:10.277Z,15.02
2022-10-23T21:01:39.936Z,14.98
2022-10-23T21:04:06.392Z,14.97
2022-10-23T21:06:45.811Z,14.95
2022-10-23T21:09:22.815Z,14.91
2022-10-23T21:11:49.365Z,14.89
2022-10-23T21:14:15.818Z,14.84
2022-10-23T21:16:44.352Z,14.79
2022-10-23T21:19:13.353Z,14.80
2022-10-23T21:21:40.762Z,14.78
2022-10-23T21:24:09.410Z,14.78
2022-10-23T21:26:36.429Z,14.75
2022-10-23T21:29:19.337Z,14.72
2022-10-23T21:31:51.848Z,14.70
2022-10-23T21:34:18.182Z,14.69
2022-10-23T21:37:07.567Z,14.67
2022-10-23T21:39:32.742Z,14.69
2022-10-23T21:41:59.097Z,14.66
2022-10-23T21:44:25.433Z,14.66
2022-10-23T21:46:51.787Z,14.67
2022-10-23T21:49:18.331Z,14.66
2022-10-23T21:51:44.718Z,14.66
2022-10-23T21:54:14.711Z,14.65
2022-10-23T21:56:46.905Z,14.65
2022-10-23T21:59:15.864Z,14.66
2022-10-23T22:01:44.839Z,14.69
2022-10-23T22:04:14.165Z,14.70
2022-10-23T22:06:41.669Z,14.70
2022-10-23T22:09:09.709Z,14.70
2022-10-23T22:11:36.174Z,14.73
2022-10-23T22:14:02.662Z,14.76
2022-10-23T22:16:30.584Z,14.77
2022-10-23T22:18:57.829Z,14.81
2022-10-23T22:21:26.915Z,14.85
2022-10-23T22:23:58.705Z,14.87
2022-10-23T22:26:28.354Z,14.83
2022-10-23T22:28:57.848Z,14.80
2022-10-23T22:31:29.640Z,14.74
2022-10-23T22:33:56.858Z,14.71
2022-10-23T22:36:24.116Z,14.71
2022-10-23T22:38:50.622Z,14.70
2022-10-23T22:41:17.403Z,14.71
2022-10-23T22:43:43.973Z,14.73
2022-10-23T22:46:13.725Z,14.76
2022-10-23T22:48:40.687Z,14.79
2022-10-23T22:51:09.057Z,14.79
2022-10-23T22:53:35.840Z,14.81
2022-10-23T22:56:06.087Z,14.80
2022-10-23T22:58:33.710Z,14.80
2022-10-23T23:01:36.421Z,14.82
2022-10-23T23:04:13.865Z,14.81
2022-10-23T23:06:49.413Z,14.81
2022-10-23T23:09:18.071Z,14.81
2022-10-23T23:11:51.425Z,14.80
2022-10-23T23:14:22.920Z,14.79
2022-10-23T23:16:51.330Z,14.78
2022-10-23T23:19:20.019Z,14.76
2022-10-23T23:21:46.498Z,14.73
2022-10-23T23:24:13.101Z,14.69
2022-10-23T23:26:39.807Z,14.64
2022-10-23T23:29:09.641Z,14.62
2022-10-23T23:31:38.145Z,14.58
2022-10-23T23:34:04.576Z,14.54
2022-10-23T23:36:31.017Z,14.51
2022-10-23T23:38:58.129Z,14.50
2022-10-23T23:41:26.348Z,14.51
2022-10-23T23:43:54.636Z,14.57
2022-10-23T23:46:21.102Z,14.63
2022-10-23T23:48:49.305Z,14.65
2022-10-23T23:51:22.129Z,14.68
2022-10-23T23:53:49.576Z,14.73
2022-10-23T23:56:16.933Z,14.77
2022-10-23T23:58:43.618Z,14.82
